Flight Track Log - Related Links

Times and Time Zones

All times are in EDT time to prevent confusion due to time zone crossing. See the VOZ1167 flight status page for this flight to view local times or setup timezone preferences in your user account.

Time Position Orientation Groundspeed Altitude Reporting Facility
EDT Latitude Longitude Course Direction KTS MPH feet Rate Location/Type
Wed 01:05:33 AM -33.9752 151.1954 141° Southeast 133 153 900  Level Aus ATC (RADAR)
Wed 01:05:59 AM -33.9894 151.2094 141° Southeast 151 174 1,700 1,429 Climbing Aus ATC (RADAR)
Wed 01:06:15 AM -33.9950 151.2160 137° Southeast 183 211 1,900 1,886 Climbing FlightAware ADS-B
Wed 01:06:34 AM -34.0107 151.2352 135° Southeast 187 215 2,800 2,156 Climbing Aus ATC (RADAR)
Wed 01:07:19 AM -34.0431 151.2713 137° Southeast 219 252 4,200 1,765 Climbing Aus ATC (RADAR)
Wed 01:07:25 AM -34.0430 151.2720 136° Southeast 241 277 4,300 2,833 Climbing FlightAware ADS-B
Wed 01:07:55 AM -34.0700 151.3020 137° Southeast 263 303 5,900 3,600 Climbing FlightAware ADS-B
Wed 01:08:20 AM -34.0930 151.3260 139° Southeast 266 306 7,600 3,818 Climbing FlightAware ADS-B
Wed 01:08:39 AM -34.1160 151.3509 139° Southeast 272 313 8,700 3,200 Climbing Aus ATC (RADAR)
Wed 01:08:50 AM -34.1210 151.3570 139° Southeast 280 322 9,200 3,000 Climbing FlightAware ADS-B
Wed 01:09:05 AM -34.1300 151.3770 119° Southeast 281 323 10,000 3,200 Climbing FlightAware ADS-B
Wed 01:09:20 AM -34.1320 151.4020 96° East 289 333 10,800 2,850 Climbing FlightAware ADS-B
Wed 01:09:45 AM -34.1250 151.4400 77° East 294 338 11,900 2,850 Climbing FlightAware ADS-B
Wed 01:10:00 AM -34.1110 151.4570 45° Northeast 298 343 12,700 3,200 Climbing FlightAware ADS-B
Wed 01:10:15 AM -34.0910 151.4650 18° North 303 349 13,500 3,375 Climbing FlightAware ADS-B
Wed 01:10:32 AM -34.0590 151.4756 18° North 308 354 14,500 3,150 Climbing Aus ATC (RADAR)
Wed 01:10:55 AM -34.0350 151.4850 18° North 305 351 15,600 2,735 Climbing FlightAware ADS-B
Wed 01:11:40 AM -33.9710 151.5070 16° North 316 364 17,600 2,634 Climbing FlightAware ADS-B
Wed 01:12:17 AM -33.9085 151.5281 16° North 333 383 19,200 2,550 Climbing Aus ATC (RADAR)
Wed 01:12:20 AM -33.9110 151.5280 16° North 338 389 19,300 2,571 Climbing FlightAware ADS-B
Wed 01:12:52 AM -33.8549 151.5468 16° North 344 396 20,700 2,400 Climbing Aus ATC (RADAR)
Wed 01:13:00 AM -33.8510 151.5490 16° North 339 390 20,900 2,609 Climbing FlightAware ADS-B
Wed 01:13:38 AM -33.7820 151.5721 16° North 343 395 22,700 2,533 Climbing Aus ATC (RADAR)
Wed 01:13:45 AM -33.7810 151.5730 16° North 353 406 22,800 1,886 Climbing FlightAware ADS-B
Wed 01:14:13 AM -33.7260 151.5914 16° North 354 407 23,800 1,950 Climbing Aus ATC (RADAR)
Wed 01:14:25 AM -33.7160 151.5960 16° North 367 422 24,100 1,680 Climbing FlightAware ADS-B
Wed 01:15:03 AM -33.6430 151.6202 16° North 371 427 25,200 1,600 Climbing Aus ATC (RADAR)
Wed 01:15:10 AM -33.6420 151.6210 16° North 385 443 25,300 1,920 Climbing FlightAware ADS-B
Wed 01:15:28 AM -33.5996 151.6351 16° North 382 440 26,000 1,950 Climbing Aus ATC (RADAR)
Wed 01:15:50 AM -33.5710 151.6460 16° North 384 442 26,600 2,032 Climbing FlightAware ADS-B
Wed 01:16:30 AM -33.5020 151.6690 16° North 388 447 28,100 2,276 Climbing FlightAware ADS-B
Wed 01:16:48 AM -33.4611 151.6824 16° North 380 437 28,800 1,733 Climbing Aus ATC (RADAR)
Wed 01:17:15 AM -33.4240 151.6960 16° North 384 442 29,400 2,239 Climbing FlightAware ADS-B
Wed 01:17:55 AM -33.3550 151.7200 16° North 371 427 31,300 2,250 Climbing FlightAware ADS-B
Wed 01:18:35 AM -33.2900 151.7420 16° North 372 428 32,400 1,692 Climbing FlightAware ADS-B
Wed 01:19:13 AM -33.2182 151.7664 16° North 364 419 33,500 1,600 Climbing Aus ATC (RADAR)
Wed 01:19:20 AM -33.2150 151.7680 16° North 366 421 33,600 1,532 Climbing FlightAware ADS-B
Wed 01:20:00 AM -33.1510 151.7900 16° North 352 405 34,700 1,355 Climbing FlightAware ADS-B
Wed 01:20:22 AM -33.1084 151.8042 16° North 360 414 35,000 316 Climbing Aus ATC (RADAR)
Wed 01:20:38 AM -33.0813 151.8131 15° North 359 413 34,900  Descending Aus ATC (RADAR)
Wed 01:20:45 AM -33.0780 151.8150 15° North 355 409 35,000  Climbing FlightAware ADS-B
Wed 01:21:13 AM -33.0246 151.8329 15° North 358 412 34,900  Descending Aus ATC (RADAR)
Wed 01:21:25 AM -33.0140 151.8370 15° North 354 407 35,000  Climbing FlightAware ADS-B
Wed 01:21:58 AM -32.9525 151.8579 15° North 360 414 34,900  Descending Aus ATC (RADAR)
Wed 01:22:05 AM -32.9510 151.8590 15° North 355 409 35,000  Climbing FlightAware ADS-B
Wed 01:22:36 AM -32.8906 151.8785 15° North 362 417 34,900  Descending Aus ATC (RADAR)
Wed 01:22:50 AM -32.8760 151.8840 15° North 356 410 35,000  Climbing FlightAware ADS-B
Wed 01:23:28 AM -32.8068 151.9073 15° North 363 418 34,900  Descending Aus ATC (RADAR)
Wed 01:23:30 AM -32.8110 151.9060 15° North 355 409 35,000 143 Climbing FlightAware ADS-B
Wed 01:24:10 AM -32.7460 151.9280 16° North 351 404 35,000  Level FlightAware ADS-B
Wed 01:24:55 AM -32.6740 151.9520 16° North 351 404 35,000 -77 Level FlightAware ADS-B
Wed 01:25:28 AM -32.6149 151.9720 16° North 357 411 34,900  Descending Aus ATC (RADAR)
Wed 01:25:35 AM -32.6100 151.9740 16° North 352 405 35,000  Climbing FlightAware ADS-B
Wed 01:25:52 AM -32.5749 151.9857 16° North 358 412 34,900  Descending Aus ATC (RADAR)
Wed 01:26:20 AM -32.5360 151.9990 16° North 350 403 35,000 88 Climbing FlightAware ADS-B
Wed 01:27:00 AM -32.4740 152.0200 16° North 355 409 35,000  Level FlightAware ADS-B
Wed 01:27:40 AM -32.4090 152.0420 16° North 349 402 35,000 -78 Level FlightAware ADS-B
Wed 01:28:17 AM -32.3448 152.0629 16° North 355 409 34,900  Descending Aus ATC (RADAR)
Wed 01:28:25 AM -32.3410 152.0640 16° North 351 404 35,000 125 Climbing FlightAware ADS-B
Wed 01:29:05 AM -32.2740 152.0870 16° North 351 404 35,000 -146 Level FlightAware ADS-B
Wed 01:29:06 AM -32.2681 152.0888 16° North 358 412 34,900  Descending Aus ATC (RADAR)
Wed 01:29:50 AM -32.2050 152.1100 16° North 351 404 35,000  Climbing FlightAware ADS-B
Wed 01:30:12 AM -32.1609 152.1243 16° North 360 414 34,900 -115 Descending Aus ATC (RADAR)
Wed 01:30:42 AM -32.1138 152.1402 16° North 355 409 34,900 182 Level Aus ATC (RADAR)
Wed 01:30:45 AM -32.1210 152.1380 16° North 356 410 35,000 140 Climbing FlightAware ADS-B
Wed 01:31:25 AM -32.0520 152.1610 16° North 354 407 35,000  Level FlightAware ADS-B
Wed 01:32:00 AM -31.9980 152.1790 16° North 356 410 35,000  Level FlightAware ADS-B
Wed 01:32:25 AM -31.9610 152.1990 25° Northeast 391 450 35,000 -105 Level FlightAware ADS-B
Wed 01:32:57 AM -31.9049 152.2559 25° Northeast 422 486 34,900  Descending Aus ATC (RADAR)
Wed 01:33:00 AM -31.9060 152.2550 25° Northeast 427 491 35,000 140 Climbing FlightAware ADS-B
Wed 01:33:40 AM -31.8540 152.3190 25° Northeast 432 497 35,000 -130 Level FlightAware ADS-B
Wed 01:33:46 AM -31.8388 152.3372 25° Northeast 420 483 34,900 -188 Descending Aus ATC (RADAR)
Wed 01:34:12 AM -31.8028 152.3844 25° Northeast 432 497 34,900 136 Level Aus ATC (RADAR)
Wed 01:34:30 AM -31.7830 152.4110 25° Northeast 436 502 35,000 103 Climbing FlightAware ADS-B
Wed 01:35:10 AM -31.7320 152.4770 48° Northeast 439 505 35,000 -103 Level FlightAware ADS-B
Wed 01:35:28 AM -31.7045 152.5141 48° Northeast 427 491 34,900  Descending Aus ATC (RADAR)
Wed 01:35:55 AM -31.6710 152.5580 48° Northeast 443 510 35,000  Climbing FlightAware ADS-B
Wed 01:36:20 AM -31.6292 152.6127 48° Northeast 432 497 34,900  Descending Aus ATC (RADAR)
Wed 01:36:50 AM -31.6000 152.6510 48° Northeast 442 509 35,000 -86 Climbing FlightAware ADS-B
Wed 01:37:30 AM -31.5420 152.7270 48° Northeast 456 525 34,800 -1,765 Descending FlightAware ADS-B
Wed 01:38:15 AM -31.4730 152.8160 48° Northeast 495 570 32,500 -2,211 Descending FlightAware ADS-B
Wed 01:39:05 AM -31.3880 152.8920 48° Northeast 461 531 31,300 -2,706 Descending FlightAware ADS-B
Wed 01:39:06 AM -31.3737 152.8944 48° Northeast 436 502 30,200 -5,077 Descending Aus ATC (RADAR)
Wed 01:39:31 AM -31.3280 152.9110 48° Northeast 416 479 29,100 1,692 Descending Aus ATC (RADAR)
Wed 01:39:45 AM -31.3270 152.9380 48° Northeast 461 531 31,300 -2,727 Climbing FlightAware ADS-B
Wed 01:40:26 AM -31.2301 152.9507 48° Northeast 407 468 26,600  Descending Aus ATC (RADAR)
Wed 01:40:35 AM -31.2510 152.9960 48° Northeast 461 531 31,300 -2,571 Climbing FlightAware ADS-B
Wed 01:41:01 AM -31.1691 152.9757 48° Northeast 400 460 25,100  Descending Aus ATC (RADAR)
Wed 01:41:15 AM -31.1900 153.0420 48° Northeast 461 531 31,300 -2,571 Climbing FlightAware ADS-B
Wed 01:41:36 AM -31.1090 153.0005 48° Northeast 395 455 23,600  Descending Aus ATC (RADAR)
Wed 01:41:55 AM -31.1290 153.0880 48° Northeast 461 531 31,300 -2,667 Climbing FlightAware ADS-B
Wed 01:42:21 AM -31.0315 153.0316 48° Northeast 395 455 21,600  Descending Aus ATC (RADAR)
Wed 01:42:35 AM -31.0680 153.1340 48° Northeast 461 531 31,300 -2,276 Climbing FlightAware ADS-B
Wed 01:42:50 AM -30.9825 153.0505 48° Northeast 382 440 20,500  Descending Aus ATC (RADAR)
Wed 01:43:15 AM -31.0080 153.1800 48° Northeast 461 531 31,300 8,640 Climbing FlightAware ADS-B
Wed 01:44:05 AM -30.9320 153.2380 33° Northeast 461 531 31,300 -10,000 Level FlightAware ADS-B
Wed 01:44:45 AM -30.8016 153.1235 33° Northeast 344 396 16,300  Descending Aus ATC (RADAR)
Wed 01:44:45 AM -30.8710 153.2840 33° Northeast 461 531 31,300 22,500 Climbing FlightAware ADS-B
Wed 01:45:25 AM -30.8100 153.3300 33° Northeast 461 531 31,300 -17,016 Level FlightAware ADS-B
Wed 01:45:46 AM -30.7131 153.1610 33° Northeast 334 384 14,000  Descending Aus ATC (RADAR)
Wed 01:46:05 AM -30.7490 153.3760 33° Northeast 461 531 31,300 -1,800 Climbing FlightAware ADS-B
Wed 01:46:46 AM -30.6250 153.1965 33° Northeast 337 388 12,200  Descending Aus ATC (RADAR)
Wed 01:46:55 AM -30.6730 153.4330 33° Northeast 461 531 31,300 -1,750 Climbing FlightAware ADS-B
Wed 01:47:34 AM -30.5537 153.2235 33° Northeast 323 372 10,800  Descending Aus ATC (RADAR)
Wed 01:47:35 AM -30.6120 153.4790 33° Northeast 461 531 31,300 -1,543 Climbing FlightAware ADS-B
Wed 01:48:09 AM -30.5035 153.2428 33° Northeast 320 368 9,900  Descending Aus ATC (RADAR)
Wed 01:48:15 AM -30.5510 153.5250 33° Northeast 461 531 31,300 -1,560 Climbing FlightAware ADS-B
Wed 01:48:59 AM -30.4362 153.2674 33° Northeast 301 346 8,600 -23,492 Descending Aus ATC (RADAR)
Wed 01:49:14 AM -30.4183 153.2755 21° North 294 338 8,200 -1,600 Descending Aus ATC (RADAR)
Wed 01:52:15 AM -30.2301 153.2762 360° North 3,500 -1,558 Descending Aus ATC (Calculated)
Wed 01:53:19 AM -30.1695 153.2757 222° Southwest -3,281 Descending Aus ATC (Calculated)
Wed 01:54:48 AM -30.2451 153.1961 222° Southwest  Level Aus ATC (Calculated)
Wed 01:55:00 AM -30.2786 153.1607 222° Southwest  Level Estimated
Wed 01:56:00 AM -30.3206 153.1164 222° Southwest  Level Estimated
Wed 01:57:00 AM -30.3206 153.1164 348° North  Level Estimated
Wed 01:58:00 AM -30.3206 153.1164 348° North  Level Estimated
Wed 01:59:00 AM -30.3206 153.1164 348° North  Level Estimated
Wed 02:00:00 AM -30.3206 153.1164 348° North  Level Estimated
Wed 02:01:00 AM -30.3206 153.1164 348° North  Level Estimated
Wed 02:02:00 AM -30.3206 153.1164 348° North  Level Estimated
Wed 02:03:00 AM -30.3206 153.1164 348° North  Level Estimated
Wed 02:04:00 AM -30.3206 153.1164 348° North  Level Estimated
Wed 02:05:00 AM -30.3206 153.1164 348° North  Level Estimated
Wed 02:06:00 AM -30.3206 153.1164 348° North  Level Estimated
Wed 02:07:00 AM -30.3206 153.1164 348° North  Level Estimated
Wed 02:08:00 AM -30.3206 153.1164 348° North  Level Estimated

Login

Don't have an account? Register now (free) for customized features, flight alerts, and more!